Port-Cartier, Canada
Current Conditions -  °F | °C
As of 9:00 AM on Wednesday 28 Jan 2015 (Local Time) from CYZV Reporting Station
Broken Clouds Broken Clouds  
Wind Chill: -13°   Ceiling: 14000
Heat Index:   Visibility: 30mi
Dew Point: -9°   Wind: 12mph
Humidity: 56%   Direction: 10°N
Pressure: 29.99"   Gusts: 18mph
Location:  50.03°N, 66.89°W
Report Text: CYZV 281400Z 01010G16KT 330V040 30SM SCT080 BKN140 BKN250 M16/M23 A2999 RMK AC3AC3CI1 SLP161
Loading
Personal Weather Stations






























Interactive Weather Map New forecast layout! Learn more

10-Day Weather Forecast

Advertisements
Track Severe Weather on mobile